Time;durP1;ratioP1;P1;durP2;ratioP2;P2;SDS_P1;SDS_P2;PMS_P1;PMS_P2;Temp;Humidity;BMP_temperature;BMP_pressure;BME280_temperature;BME280_humidity;BME280_pressure;Samples;Min_cycle;Max_cycle;Signal;HPM_P1;HPM_P2
2023/08/13 00:01:28;;;;;;;10.07;5.93;;;17.40;99.90;;;;;;4985940;28;20059;-80
2023/08/13 00:03:57;;;;;;;9.77;5.25;;;17.40;99.90;;;;;;4989320;28;20034;-83
2023/08/13 00:06:26;;;;;;;8.68;6.70;;;17.40;99.90;;;;;;4981012;28;20035;-80
2023/08/13 00:09:02;;;;;;;9.50;6.00;;;17.40;99.90;;;;;;4967528;28;20038;-81
2023/08/13 00:11:28;;;;;;;6.50;5.80;;;17.50;99.90;;;;;;4984051;28;20516;-81
2023/08/13 00:13:53;;;;;;;6.70;6.10;;;17.50;99.90;;;;;;4970338;28;20062;-82
2023/08/13 00:16:19;;;;;;;12.18;6.65;;;17.50;99.90;;;;;;4987126;28;20086;-80
2023/08/13 00:18:45;;;;;;;7.40;6.28;;;17.50;99.90;;;;;;4985634;28;20050;-80
2023/08/13 00:21:11;;;;;;;8.15;5.63;;;17.50;99.90;;;;;;4981943;28;20023;-82
2023/08/13 00:23:37;;;;;;;7.90;5.93;;;17.50;99.90;;;;;;4985201;28;20042;-82
2023/08/13 00:26:03;;;;;;;6.47;5.68;;;17.50;99.90;;;;;;4988385;28;20062;-83
2023/08/13 00:28:30;;;;;;;7.07;6.38;;;17.50;99.90;;;;;;4992546;28;20039;-80
2023/08/13 00:30:55;;;;;;;10.98;6.38;;;17.60;99.90;;;;;;4972709;28;20387;-80
2023/08/13 00:33:21;;;;;;;9.32;6.60;;;17.70;99.90;;;;;;4984315;28;20039;-82
2023/08/13 00:35:49;;;;;;;7.38;5.30;;;17.70;99.90;;;;;;4973334;28;20038;-81
2023/08/13 00:38:16;;;;;;;11.13;5.55;;;17.70;99.90;;;;;;4991054;28;20058;-81
2023/08/13 00:40:41;;;;;;;7.68;5.38;;;17.60;99.90;;;;;;4992060;28;20483;-81
2023/08/13 00:43:07;;;;;;;8.07;5.75;;;17.60;99.90;;;;;;4978642;28;20390;-81
2023/08/13 00:45:35;;;;;;;9.80;6.35;;;17.60;99.90;;;;;;4976815;28;20034;-81
2023/08/13 00:48:02;;;;;;;8.05;6.38;;;17.60;99.90;;;;;;4991365;28;20121;-81
2023/08/13 00:50:28;;;;;;;8.43;5.40;;;17.60;99.90;;;;;;4980679;28;20105;-81
2023/08/13 00:52:54;;;;;;;6.13;5.53;;;17.60;99.90;;;;;;4980238;28;20030;-81
2023/08/13 00:55:20;;;;;;;5.95;5.38;;;17.60;99.90;;;;;;4980116;28;20031;-82
2023/08/13 00:57:47;;;;;;;6.38;5.60;;;17.50;99.90;;;;;;4989835;28;20033;-81
2023/08/13 01:00:13;;;;;;;7.30;6.07;;;17.40;99.90;;;;;;4990766;28;20082;-81
2023/08/13 01:02:40;;;;;;;7.47;6.78;;;17.40;99.90;;;;;;4993115;28;20774;-80
2023/08/13 01:05:05;;;;;;;10.75;5.72;;;17.40;99.90;;;;;;4994323;28;20049;-82
2023/08/13 01:08:00;;;;;;;6.95;5.72;;;17.40;99.90;;;;;;4963049;28;20043;-80
2023/08/13 01:10:34;;;;;;;6.57;5.95;;;17.40;99.90;;;;;;4992422;28;20038;-83
2023/08/13 01:13:12;;;;;;;11.02;6.97;;;17.50;99.90;;;;;;4989827;28;20483;-81
2023/08/13 01:15:40;;;;;;;8.95;6.72;;;17.50;99.90;;;;;;4988427;28;20031;-80
2023/08/13 01:18:07;;;;;;;8.20;6.88;;;17.50;99.90;;;;;;4992418;28;20094;-80
2023/08/13 01:20:36;;;;;;;8.82;6.90;;;17.50;99.90;;;;;;4978667;28;20027;-80
2023/08/13 01:23:03;;;;;;;9.18;7.18;;;17.50;99.90;;;;;;4975230;28;20026;-81
2023/08/13 01:25:30;;;;;;;6.75;6.00;;;17.50;99.90;;;;;;4974683;28;20034;-80
2023/08/13 01:28:17;;;;;;;7.00;5.88;;;17.40;99.90;;;;;;4982005;28;20042;-81
2023/08/13 01:30:51;;;;;;;8.57;6.72;;;17.40;99.90;;;;;;4983290;28;20368;-81
2023/08/13 01:33:26;;;;;;;7.90;7.10;;;17.30;99.90;;;;;;4978538;28;20099;-80
2023/08/13 01:36:02;;;;;;;9.25;7.28;;;17.40;99.90;;;;;;4994746;28;20499;-81
2023/08/13 01:38:30;;;;;;;10.52;7.20;;;17.40;99.90;;;;;;4992232;28;20072;-79
2023/08/13 01:41:03;;;;;;;11.38;8.48;;;17.50;99.90;;;;;;4990312;28;20383;-80
2023/08/13 01:43:52;;;;;;;10.80;8.43;;;17.50;99.90;;;;;;4994240;28;20034;-83
2023/08/13 01:46:38;;;;;;;25.58;8.93;;;17.50;99.90;;;;;;4955917;28;20125;-81
2023/08/13 01:49:20;;;;;;;9.07;8.15;;;17.60;99.90;;;;;;4968017;28;20050;-82
2023/08/13 01:51:47;;;;;;;10.40;8.15;;;17.50;99.90;;;;;;4975592;28;20522;-82
2023/08/13 01:54:12;;;;;;;10.82;9.45;;;17.50;99.90;;;;;;4986789;28;20039;-81
2023/08/13 01:56:38;;;;;;;9.57;8.68;;;17.50;99.90;;;;;;4968732;28;20031;-81
2023/08/13 01:59:04;;;;;;;12.25;10.65;;;17.50;99.90;;;;;;4977037;28;20458;-80
2023/08/13 02:01:30;;;;;;;16.92;10.32;;;17.50;99.90;;;;;;4970316;28;20031;-80
2023/08/13 02:03:56;;;;;;;13.25;9.30;;;17.50;99.90;;;;;;4987064;28;20118;-81
2023/08/13 02:06:22;;;;;;;11.88;10.63;;;17.50;99.90;;;;;;4970768;28;20039;-81
2023/08/13 02:08:47;;;;;;;13.65;10.50;;;17.50;99.90;;;;;;4979174;28;20035;-81
2023/08/13 02:11:13;;;;;;;15.93;11.52;;;17.50;99.90;;;;;;4973790;28;20031;-81
2023/08/13 02:13:39;;;;;;;17.80;12.25;;;17.50;99.90;;;;;;4984674;28;20499;-79
2023/08/13 02:16:05;;;;;;;13.23;11.52;;;17.60;99.90;;;;;;4973800;28;20041;-83
2023/08/13 02:18:31;;;;;;;14.43;10.27;;;17.60;99.90;;;;;;4977215;28;20484;-81
2023/08/13 02:20:57;;;;;;;15.20;10.63;;;17.60;99.90;;;;;;4986531;28;20031;-82
2023/08/13 02:23:23;;;;;;;13.73;10.77;;;17.50;99.90;;;;;;4982131;28;20073;-82
2023/08/13 02:25:49;;;;;;;11.80;10.60;;;17.60;99.90;;;;;;4998897;28;20110;-82
2023/08/13 02:28:15;;;;;;;12.43;9.25;;;17.60;99.90;;;;;;4984125;28;20034;-82
2023/08/13 02:30:40;;;;;;;10.00;8.38;;;17.60;99.90;;;;;;4995823;28;20522;-81
2023/08/13 02:33:06;;;;;;;14.68;9.20;;;17.50;99.90;;;;;;4978984;28;20046;-82
2023/08/13 02:35:33;;;;;;;13.35;7.75;;;17.50;99.90;;;;;;4988952;28;20019;-81
2023/08/13 02:37:58;;;;;;;101.97;11.50;;;17.50;99.90;;;;;;4989491;28;20126;-80
2023/08/13 02:40:26;;;;;;;10.07;9.07;;;17.50;99.90;;;;;;4974160;28;20042;-82
2023/08/13 02:42:53;;;;;;;11.35;9.93;;;17.50;99.90;;;;;;4975650;28;20487;-81
2023/08/13 02:45:19;;;;;;;12.60;11.25;;;17.50;99.90;;;;;;4975794;28;20482;-81
2023/08/13 02:47:45;;;;;;;12.63;9.50;;;17.50;99.90;;;;;;4983065;28;20046;-82
2023/08/13 02:50:10;;;;;;;13.10;10.27;;;17.50;99.90;;;;;;4975626;28;20049;-81
2023/08/13 02:52:36;;;;;;;11.77;9.65;;;17.50;99.90;;;;;;4989992;28;20460;-82
2023/08/13 02:55:02;;;;;;;14.20;10.57;;;17.50;99.90;;;;;;4997901;28;20023;-81
2023/08/13 02:57:28;;;;;;;14.57;9.90;;;17.50;99.90;;;;;;4970130;28;20039;-82
2023/08/13 02:59:54;;;;;;;11.73;9.30;;;17.50;99.90;;;;;;4986743;28;20498;-81
2023/08/13 03:02:22;;;;;;;9.90;9.02;;;17.50;99.90;;;;;;4972513;28;20093;-82
2023/08/13 03:04:52;;;;;;;9.38;8.48;;;17.40;99.90;;;;;;4955567;28;20026;-82
2023/08/13 03:07:20;;;;;;;11.20;8.98;;;17.40;99.90;;;;;;4989007;28;20061;-81
2023/08/13 03:09:46;;;;;;;14.65;11.43;;;17.40;99.90;;;;;;4985517;28;20415;-83
2023/08/13 03:12:12;;;;;;;14.65;11.70;;;17.50;99.90;;;;;;4974199;28;20034;-81
2023/08/13 03:14:38;;;;;;;14.98;12.48;;;17.50;99.90;;;;;;4961164;28;20031;-83
2023/08/13 03:17:04;;;;;;;15.55;13.73;;;17.50;99.90;;;;;;4972504;28;20038;-81
2023/08/13 03:19:30;;;;;;;15.82;12.50;;;17.50;99.90;;;;;;4978176;28;20050;-80
2023/08/13 03:21:56;;;;;;;15.20;12.13;;;17.50;99.90;;;;;;4973876;28;20041;-82
2023/08/13 03:24:22;;;;;;;28.20;13.90;;;17.60;99.90;;;;;;4960952;28;20038;-80
2023/08/13 03:26:48;;;;;;;14.25;12.75;;;17.60;99.90;;;;;;4987894;28;20035;-81
2023/08/13 03:29:14;;;;;;;15.50;13.20;;;17.60;99.90;;;;;;4977806;28;20442;-80
2023/08/13 03:31:40;;;;;;;19.67;15.32;;;17.70;99.90;;;;;;4941432;28;20030;-83
2023/08/13 03:34:25;;;;;;;28.55;17.27;;;17.70;99.90;;;;;;4969452;28;20046;-79
2023/08/13 03:36:52;;;;;;;17.02;13.32;;;17.70;99.90;;;;;;4975306;28;20031;-82
2023/08/13 03:39:18;;;;;;;14.07;12.40;;;17.70;99.90;;;;;;4975790;28;20120;-80
2023/08/13 03:41:44;;;;;;;13.85;12.43;;;17.80;99.90;;;;;;4986122;28;20511;-83
2023/08/13 03:44:11;;;;;;;22.33;16.63;;;17.80;99.90;;;;;;4967648;28;20097;-77
2023/08/13 03:46:37;;;;;;;22.40;16.83;;;17.90;99.90;;;;;;4989615;28;20128;-80
2023/08/13 03:49:03;;;;;;;19.67;15.70;;;17.90;99.90;;;;;;4979144;28;20039;-81
2023/08/13 03:51:28;;;;;;;18.33;14.57;;;17.90;99.90;;;;;;4971948;28;20042;-80
2023/08/13 03:53:55;;;;;;;17.85;14.70;;;18.00;99.90;;;;;;4971490;28;20042;-79
2023/08/13 03:56:24;;;;;;;21.00;14.90;;;18.00;99.90;;;;;;4973597;28;20030;-82
2023/08/13 03:58:50;;;;;;;21.35;14.73;;;18.00;99.90;;;;;;4974926;28;20092;-80
2023/08/13 04:01:16;;;;;;;21.13;17.30;;;18.00;99.90;;;;;;4974518;28;20149;-80
2023/08/13 04:03:45;;;;;;;28.23;17.90;;;18.10;99.90;;;;;;4974328;28;20176;-79
2023/08/13 04:06:11;;;;;;;21.33;16.08;;;18.10;99.90;;;;;;4972411;28;20506;-82
2023/08/13 04:08:37;;;;;;;21.25;15.43;;;18.20;99.90;;;;;;4967323;28;20035;-81
2023/08/13 04:11:02;;;;;;;17.60;14.70;;;18.20;99.90;;;;;;4990863;28;20030;-82
2023/08/13 04:13:28;;;;;;;20.73;15.70;;;18.20;99.90;;;;;;4974518;28;20031;-77
2023/08/13 04:15:54;;;;;;;15.07;13.57;;;18.20;99.90;;;;;;4984630;28;20424;-80
2023/08/13 04:18:20;;;;;;;20.10;15.57;;;18.20;99.90;;;;;;4970791;28;20106;-82
2023/08/13 04:20:47;;;;;;;17.55;15.10;;;18.30;99.90;;;;;;4973472;28;20069;-81
2023/08/13 04:23:13;;;;;;;18.83;15.15;;;18.30;99.90;;;;;;4976157;28;20027;-79
2023/08/13 04:25:39;;;;;;;17.05;13.50;;;18.30;99.90;;;;;;4957762;28;20038;-82
2023/08/13 04:28:06;;;;;;;16.77;13.52;;;18.30;99.90;;;;;;4972994;28;20043;-81
2023/08/13 04:30:36;;;;;;;14.88;13.35;;;18.30;99.90;;;;;;4971774;28;20039;-81
2023/08/13 04:33:02;;;;;;;15.80;13.63;;;18.30;99.90;;;;;;4973632;28;20133;-79
2023/08/13 04:35:30;;;;;;;18.15;13.38;;;18.30;99.90;;;;;;4981926;28;20027;-82
2023/08/13 04:37:56;;;;;;;16.77;13.45;;;18.30;99.90;;;;;;4982590;28;20110;-79
2023/08/13 04:40:22;;;;;;;14.55;13.07;;;18.40;99.90;;;;;;4981544;28;20031;-80
2023/08/13 04:42:51;;;;;;;14.20;12.13;;;18.40;99.90;;;;;;4974979;28;20065;-81
2023/08/13 04:45:16;;;;;;;17.02;13.40;;;18.40;99.90;;;;;;4973485;28;20030;-81
2023/08/13 04:47:43;;;;;;;17.08;13.02;;;18.40;99.90;;;;;;4970367;28;20660;-81
2023/08/13 04:50:09;;;;;;;15.10;13.40;;;18.40;99.90;;;;;;4976700;28;20046;-82
2023/08/13 04:52:35;;;;;;;13.32;11.93;;;18.50;99.90;;;;;;4970951;28;20039;-80
2023/08/13 04:55:01;;;;;;;14.43;11.77;;;18.50;99.90;;;;;;4977032;28;20117;-81
2023/08/13 04:57:27;;;;;;;13.02;11.65;;;18.40;99.90;;;;;;4971371;28;20034;-81
2023/08/13 04:59:53;;;;;;;16.23;14.43;;;18.40;99.90;;;;;;4968745;28;20113;-81
2023/08/13 05:02:20;;;;;;;13.68;12.27;;;18.50;99.90;;;;;;4975845;28;20526;-81
2023/08/13 05:04:47;;;;;;;13.15;11.77;;;18.50;99.90;;;;;;4973031;28;20296;-80
2023/08/13 05:07:13;;;;;;;12.68;11.32;;;18.50;99.90;;;;;;4971638;28;20053;-81
2023/08/13 05:09:38;;;;;;;14.23;11.30;;;18.50;99.90;;;;;;4991201;28;20124;-81
2023/08/13 05:12:04;;;;;;;12.52;11.32;;;18.50;99.90;;;;;;4972884;28;20037;-82
2023/08/13 05:14:30;;;;;;;14.32;11.65;;;18.50;99.90;;;;;;4978526;28;20054;-82
2023/08/13 05:16:56;;;;;;;13.15;11.85;;;18.50;99.90;;;;;;4972562;28;20030;-79
2023/08/13 05:19:22;;;;;;;13.82;12.43;;;18.60;99.90;;;;;;4973570;28;20031;-80
2023/08/13 05:21:48;;;;;;;15.65;12.68;;;18.60;99.90;;;;;;4975762;28;20033;-80
2023/08/13 05:24:14;;;;;;;15.55;13.10;;;18.60;99.90;;;;;;4978963;28;20042;-79
2023/08/13 05:26:40;;;;;;;12.95;11.65;;;18.70;99.90;;;;;;4988395;28;20058;-80
2023/08/13 05:29:05;;;;;;;14.55;13.07;;;18.70;99.90;;;;;;4969234;28;20121;-80
2023/08/13 05:31:33;;;;;;;13.75;12.07;;;18.80;99.90;;;;;;4985082;28;20487;-81
2023/08/13 05:33:59;;;;;;;13.90;12.40;;;18.80;99.90;;;;;;4972744;28;20035;-81
2023/08/13 05:36:26;;;;;;;15.75;12.77;;;18.80;99.90;;;;;;4978609;28;20112;-81
2023/08/13 05:38:52;;;;;;;25.40;12.75;;;18.70;99.90;;;;;;4994701;28;20092;-80
2023/08/13 05:41:18;;;;;;;15.73;12.27;;;18.80;99.90;;;;;;4970270;28;20031;-80
2023/08/13 05:43:44;;;;;;;17.20;12.45;;;18.80;99.90;;;;;;5000129;28;20133;-80
2023/08/13 05:46:10;;;;;;;12.30;10.90;;;18.70;99.90;;;;;;4980132;28;20077;-82
2023/08/13 05:48:36;;;;;;;19.95;13.68;;;18.70;99.90;;;;;;4979178;28;20046;-82
2023/08/13 05:51:02;;;;;;;15.35;12.77;;;18.70;99.90;;;;;;4977433;28;20038;-81
2023/08/13 05:53:28;;;;;;;14.68;13.02;;;18.70;99.90;;;;;;4990812;28;20027;-81
2023/08/13 05:55:53;;;;;;;15.75;12.18;;;18.70;99.90;;;;;;4990696;28;20065;-80
2023/08/13 05:58:19;;;;;;;15.77;12.07;;;18.70;99.90;;;;;;4988062;28;20038;-82
2023/08/13 06:00:45;;;;;;;16.35;13.45;;;18.80;99.90;;;;;;4994976;28;20034;-81
2023/08/13 06:03:11;;;;;;;16.55;13.20;;;18.80;99.90;;;;;;4987837;28;20027;-82
2023/08/13 06:05:38;;;;;;;16.05;13.63;;;18.90;99.90;;;;;;4993239;28;20034;-81
2023/08/13 06:08:04;;;;;;;14.65;13.05;;;19.00;99.90;;;;;;4990172;28;20041;-82
2023/08/13 06:10:30;;;;;;;14.77;12.68;;;19.00;99.90;;;;;;4991135;28;20038;-81
2023/08/13 06:12:56;;;;;;;16.85;14.13;;;19.10;99.90;;;;;;4996225;28;20523;-80
2023/08/13 06:15:23;;;;;;;19.05;13.88;;;19.10;99.90;;;;;;4990627;28;20031;-80
2023/08/13 06:17:49;;;;;;;18.98;14.23;;;19.20;99.90;;;;;;4993511;28;20030;-79
2023/08/13 06:20:15;;;;;;;16.92;13.98;;;19.20;99.90;;;;;;4990581;28;20030;-82
2023/08/13 06:22:41;;;;;;;23.27;14.90;;;19.20;99.90;;;;;;4991652;28;20117;-82
2023/08/13 06:25:07;;;;;;;16.55;14.55;;;19.20;99.90;;;;;;4987863;28;20077;-78
2023/08/13 06:27:33;;;;;;;17.38;13.88;;;19.30;99.90;;;;;;4958376;28;20100;-82
2023/08/13 06:29:59;;;;;;;16.70;14.35;;;19.30;99.90;;;;;;4985260;28;20096;-81
2023/08/13 06:32:25;;;;;;;17.27;15.32;;;19.40;99.90;;;;;;4993020;28;20038;-80
2023/08/13 06:34:51;;;;;;;18.05;14.43;;;19.50;99.90;;;;;;4993992;28;20491;-79
2023/08/13 06:37:16;;;;;;;17.30;15.13;;;19.50;99.90;;;;;;4989909;28;20034;-81
2023/08/13 06:39:42;;;;;;;16.20;14.48;;;19.30;99.90;;;;;;4991794;28;20034;-79
2023/08/13 06:42:08;;;;;;;19.40;14.82;;;19.40;99.90;;;;;;4988382;28;20065;-80
2023/08/13 06:44:34;;;;;;;18.38;13.45;;;19.50;99.90;;;;;;4973875;28;20046;-82
2023/08/13 06:46:59;;;;;;;16.52;13.18;;;19.60;99.90;;;;;;4978960;28;20582;-80
2023/08/13 06:49:25;;;;;;;12.88;10.60;;;19.60;99.90;;;;;;4995944;28;20643;-82
2023/08/13 06:51:51;;;;;;;16.33;12.60;;;19.60;99.90;;;;;;4989521;28;20038;-82
2023/08/13 06:54:18;;;;;;;12.85;11.55;;;19.60;99.90;;;;;;4980726;28;20107;-82
2023/08/13 06:56:44;;;;;;;12.75;11.05;;;19.80;99.90;;;;;;4990323;28;20115;-83
2023/08/13 06:59:09;;;;;;;13.55;11.40;;;19.90;99.90;;;;;;4976707;28;20058;-81
2023/08/13 07:01:35;;;;;;;12.93;11.18;;;20.10;99.90;;;;;;4986773;28;20574;-82
2023/08/13 07:04:01;;;;;;;13.35;11.13;;;20.20;99.90;;;;;;4985449;28;20034;-82
2023/08/13 07:06:27;;;;;;;10.50;9.50;;;20.30;99.90;;;;;;4989715;28;20045;-82
2023/08/13 07:08:53;;;;;;;10.05;8.90;;;20.50;99.90;;;;;;4985087;28;20121;-83
2023/08/13 07:11:19;;;;;;;14.18;9.80;;;20.30;99.90;;;;;;4985284;28;20185;-82
2023/08/13 07:13:45;;;;;;;10.10;9.10;;;20.40;99.90;;;;;;4989380;28;20066;-81
2023/08/13 07:16:13;;;;;;;9.25;8.35;;;20.50;99.90;;;;;;4984323;28;20848;-81
2023/08/13 07:18:41;;;;;;;9.80;8.18;;;20.50;99.90;;;;;;4992926;28;20125;-83
2023/08/13 07:21:08;;;;;;;8.82;8.02;;;20.60;99.90;;;;;;4985040;28;20030;-80
2023/08/13 07:23:35;;;;;;;9.20;8.27;;;20.50;99.90;;;;;;4981831;28;20119;-80
2023/08/13 07:26:01;;;;;;;10.52;7.53;;;20.60;99.90;;;;;;4993000;28;20050;-81
2023/08/13 07:28:26;;;;;;;8.48;6.80;;;20.70;99.90;;;;;;4982472;28;20081;-80
2023/08/13 07:30:52;;;;;;;7.97;7.18;;;20.60;99.90;;;;;;4989203;28;20038;-79
2023/08/13 07:33:37;;;;;;;6.75;6.05;;;20.60;99.90;;;;;;4989310;28;20062;-80
2023/08/13 07:36:03;;;;;;;8.65;7.72;;;20.50;99.90;;;;;;4989797;28;20022;-80
2023/08/13 07:38:29;;;;;;;8.93;7.60;;;20.60;99.90;;;;;;4993696;28;20026;-79
2023/08/13 07:41:00;;;;;;;7.70;6.93;;;20.80;99.90;;;;;;4986896;28;20300;-82
2023/08/13 07:43:26;;;;;;;7.60;6.22;;;21.00;99.90;;;;;;4988731;28;20113;-79
2023/08/13 07:45:53;;;;;;;7.72;6.63;;;21.20;99.90;;;;;;4968736;28;20126;-80
2023/08/13 07:48:19;;;;;;;7.40;6.68;;;21.30;99.90;;;;;;4953226;28;20042;-82
2023/08/13 07:50:45;;;;;;;6.65;5.93;;;21.20;99.90;;;;;;4989895;28;20034;-82
2023/08/13 07:53:11;;;;;;;7.30;6.53;;;21.10;99.90;;;;;;4972347;28;20042;-81
2023/08/13 07:55:36;;;;;;;6.30;5.63;;;21.10;99.90;;;;;;4992801;28;20058;-81
2023/08/13 07:58:02;;;;;;;6.97;6.38;;;21.10;99.90;;;;;;4989969;28;20065;-83
2023/08/13 08:00:28;;;;;;;7.22;6.53;;;21.00;99.90;;;;;;4987464;28;20096;-81
2023/08/13 08:02:54;;;;;;;7.40;6.03;;;21.10;99.90;;;;;;4987223;28;20487;-81
2023/08/13 08:05:21;;;;;;;10.00;6.15;;;21.00;99.90;;;;;;4989821;28;20050;-80
2023/08/13 08:07:47;;;;;;;8.05;6.00;;;21.20;99.90;;;;;;4991426;28;20034;-80
2023/08/13 08:10:13;;;;;;;7.72;5.63;;;21.20;99.90;;;;;;4991430;28;20491;-83
2023/08/13 08:12:38;;;;;;;7.00;6.00;;;21.30;99.90;;;;;;4989877;28;20117;-80
2023/08/13 08:15:08;;;;;;;6.38;5.20;;;21.30;99.90;;;;;;4993721;28;20065;-80
2023/08/13 08:17:35;;;;;;;6.32;5.40;;;21.40;99.90;;;;;;4991579;28;20061;-81
2023/08/13 08:20:02;;;;;;;4.90;4.07;;;21.50;99.90;;;;;;4991691;28;20031;-79
2023/08/13 08:22:28;;;;;;;5.60;5.13;;;21.70;99.90;;;;;;4986030;28;20018;-78
2023/08/13 08:24:54;;;;;;;5.18;4.63;;;21.80;99.90;;;;;;4991427;28;20592;-80
2023/08/13 08:27:20;;;;;;;4.40;3.90;;;22.00;99.90;;;;;;4990625;28;20035;-80
2023/08/13 08:29:45;;;;;;;4.60;4.00;;;22.30;99.90;;;;;;4993882;28;20057;-82
2023/08/13 08:32:11;;;;;;;4.72;4.20;;;22.60;99.90;;;;;;4956007;28;20038;-78
2023/08/13 08:34:37;;;;;;;6.85;4.35;;;22.80;99.90;;;;;;4989194;28;20042;-82
2023/08/13 08:37:04;;;;;;;7.00;4.50;;;22.90;99.90;;;;;;4989497;28;20403;-80
2023/08/13 08:39:30;;;;;;;4.78;4.20;;;22.50;99.90;;;;;;4993670;28;20041;-81
2023/08/13 08:41:57;;;;;;;5.88;4.10;;;22.30;99.90;;;;;;4989438;28;20030;-82
2023/08/13 08:44:24;;;;;;;5.55;4.25;;;22.50;99.90;;;;;;4994162;28;20034;-81
2023/08/13 08:46:51;;;;;;;5.60;4.10;;;22.60;99.90;;;;;;4992464;28;20041;-80
2023/08/13 08:49:18;;;;;;;5.10;3.75;;;22.70;99.90;;;;;;4991843;28;20093;-78
2023/08/13 08:51:46;;;;;;;4.60;4.20;;;22.60;99.90;;;;;;4988002;28;20113;-80
2023/08/13 08:54:11;;;;;;;4.10;3.80;;;22.60;99.90;;;;;;4977097;28;20354;-79
2023/08/13 08:56:37;;;;;;;6.80;4.07;;;22.70;99.90;;;;;;4972074;28;20126;-80
2023/08/13 08:59:05;;;;;;;3.70;3.40;;;22.70;99.90;;;;;;4980783;28;20027;-81
2023/08/13 09:01:31;;;;;;;5.38;4.30;;;22.90;99.90;;;;;;4984415;28;20035;-79
2023/08/13 09:03:57;;;;;;;9.25;7.57;;;22.80;99.90;;;;;;4988553;28;20510;-79
2023/08/13 09:06:23;;;;;;;5.95;5.35;;;22.80;99.90;;;;;;4991415;28;20053;-78
2023/08/13 09:08:49;;;;;;;4.00;3.55;;;22.80;99.90;;;;;;4983340;28;20049;-81
2023/08/13 09:11:17;;;;;;;4.60;3.92;;;22.80;99.90;;;;;;4993070;28;20030;-81
2023/08/13 09:13:49;;;;;;;3.30;3.00;;;22.90;99.90;;;;;;4988707;28;20030;-79
2023/08/13 09:16:15;;;;;;;3.80;3.42;;;22.80;99.90;;;;;;4986529;28;20038;-78
2023/08/13 09:18:41;;;;;;;4.28;3.38;;;22.90;99.90;;;;;;4988498;28;20342;-80
2023/08/13 09:21:09;;;;;;;3.47;3.17;;;22.90;99.90;;;;;;4986327;28;20062;-81
2023/08/13 09:23:38;;;;;;;3.85;3.10;;;23.00;99.90;;;;;;4981059;28;20031;-77
2023/08/13 09:26:04;;;;;;;5.15;3.22;;;23.10;99.90;;;;;;4986914;28;20037;-77
2023/08/13 09:28:30;;;;;;;3.13;2.85;;;23.20;99.90;;;;;;4985295;28;20035;-78
2023/08/13 09:30:57;;;;;;;3.40;3.10;;;23.20;99.90;;;;;;4980168;28;20030;-76
2023/08/13 09:33:23;;;;;;;3.95;2.72;;;23.30;99.90;;;;;;4987300;28;20114;-78
2023/08/13 09:35:49;;;;;;;6.82;3.38;;;23.50;99.90;;;;;;4984715;28;20054;-79
2023/08/13 09:38:14;;;;;;;7.32;3.80;;;23.60;99.90;;;;;;4985151;28;20039;-77
2023/08/13 09:40:43;;;;;;;3.58;2.80;;;23.60;99.90;;;;;;4978469;28;20069;-79
2023/08/13 09:43:11;;;;;;;4.10;3.70;;;23.60;99.90;;;;;;4987528;28;20034;-80
2023/08/13 09:45:36;;;;;;;2.92;2.60;;;23.70;99.90;;;;;;4987671;28;20458;-78
2023/08/13 09:48:06;;;;;;;2.45;2.25;;;23.80;99.90;;;;;;4972332;28;20031;-82
2023/08/13 09:50:36;;;;;;;3.88;2.50;;;23.80;99.90;;;;;;4988124;28;20050;-80
2023/08/13 09:53:04;;;;;;;2.65;2.45;;;23.90;99.90;;;;;;4989107;28;20541;-78
2023/08/13 09:55:34;;;;;;;3.00;2.67;;;23.80;99.90;;;;;;4988686;28;20118;-79
2023/08/13 09:58:03;;;;;;;3.53;3.15;;;23.80;99.90;;;;;;4991897;28;20037;-79
2023/08/13 10:00:29;;;;;;;2.75;2.55;;;24.00;99.90;;;;;;4989950;28;20050;-79
2023/08/13 10:02:55;;;;;;;2.50;2.40;;;24.10;99.90;;;;;;4987411;28;21003;-77
2023/08/13 10:05:21;;;;;;;2.88;2.47;;;24.20;99.90;;;;;;4985404;28;20108;-77
2023/08/13 10:07:48;;;;;;;2.50;2.30;;;24.30;99.90;;;;;;4979467;28;20030;-80
2023/08/13 10:10:14;;;;;;;2.60;2.40;;;24.30;99.90;;;;;;4990541;28;20054;-79
2023/08/13 10:12:40;;;;;;;3.63;2.38;;;24.30;99.90;;;;;;4967145;28;20558;-80
2023/08/13 10:15:07;;;;;;;3.50;2.20;;;24.20;99.90;;;;;;4987270;28;20026;-77
2023/08/13 10:17:33;;;;;;;2.65;2.38;;;24.20;99.90;;;;;;4972217;28;20050;-79
2023/08/13 10:19:59;;;;;;;2.35;2.15;;;24.10;99.90;;;;;;4987119;28;20062;-78
2023/08/13 10:22:36;;;;;;;3.08;2.65;;;24.00;99.90;;;;;;4985542;28;20031;-80
2023/08/13 10:25:02;;;;;;;3.72;2.90;;;23.90;99.90;;;;;;4986619;28;20026;-79
2023/08/13 10:27:52;;;;;;;2.85;2.65;;;23.80;99.90;;;;;;4991693;28;20113;-79
2023/08/13 10:30:17;;;;;;;3.30;2.42;;;23.70;99.90;;;;;;4989204;28;20518;-80
2023/08/13 10:33:00;;;;;;;2.60;2.40;;;23.60;99.90;;;;;;4984808;28;20061;-79
2023/08/13 10:35:34;;;;;;;2.72;2.53;;;23.50;99.90;;;;;;4984119;28;20598;-80
2023/08/13 10:38:02;;;;;;;2.58;2.38;;;23.50;99.90;;;;;;4986408;28;20031;-80
2023/08/13 10:40:28;;;;;;;3.40;2.60;;;23.50;99.90;;;;;;4989310;28;20105;-80
2023/08/13 10:42:56;;;;;;;3.83;2.38;;;23.60;99.90;;;;;;4983803;28;20050;-81
2023/08/13 10:45:25;;;;;;;5.10;3.00;;;23.70;99.90;;;;;;4988435;28;20058;-78
2023/08/13 10:48:04;;;;;;;3.83;2.50;;;23.70;99.90;;;;;;4979605;28;20035;-80
2023/08/13 10:50:40;;;;;;;3.03;2.40;;;23.90;99.90;;;;;;4985475;28;20162;-80
2023/08/13 10:53:19;;;;;;;3.03;2.50;;;23.90;99.90;;;;;;4979435;28;20047;-81
2023/08/13 10:55:47;;;;;;;3.90;2.67;;;24.00;99.90;;;;;;4983654;28;20044;-80
2023/08/13 10:58:36;;;;;;;3.00;2.75;;;24.20;99.90;;;;;;4995659;28;20038;-80
2023/08/13 11:01:19;;;;;;;3.13;2.55;;;24.40;99.90;;;;;;4988168;28;20036;-79
2023/08/13 11:03:52;;;;;;;4.95;2.67;;;24.50;99.90;;;;;;4983778;28;20039;-79
2023/08/13 11:06:23;;;;;;;2.92;2.60;;;24.60;99.90;;;;;;4989049;28;20076;-80
2023/08/13 11:08:50;;;;;;;6.07;5.03;;;24.60;99.90;;;;;;4997136;28;20122;-79
2023/08/13 11:11:16;;;;;;;2.97;2.65;;;24.60;99.90;;;;;;4966877;28;20941;-79
2023/08/13 11:13:42;;;;;;;2.83;2.47;;;24.60;99.90;;;;;;4992031;28;20100;-79
2023/08/13 11:16:08;;;;;;;4.20;2.72;;;24.60;99.90;;;;;;4985381;28;20439;-80
2023/08/13 11:18:34;;;;;;;5.97;2.45;;;24.50;99.90;;;;;;4986786;28;20022;-78
2023/08/13 11:21:00;;;;;;;2.60;2.20;;;24.60;99.90;;;;;;4988261;28;20098;-78
2023/08/13 11:23:50;;;;;;;2.95;2.30;;;24.60;99.90;;;;;;4986762;28;20061;-81
2023/08/13 11:26:17;;;;;;;4.53;2.30;;;24.70;99.90;;;;;;4977018;28;20030;-80
2023/08/13 11:28:44;;;;;;;3.10;2.55;;;24.70;99.90;;;;;;4979970;28;20057;-78
2023/08/13 11:31:10;;;;;;;2.60;2.38;;;24.60;99.90;;;;;;4992601;28;20037;-80
2023/08/13 11:33:35;;;;;;;4.13;2.40;;;24.70;99.90;;;;;;4988518;28;20030;-80
2023/08/13 11:36:01;;;;;;;2.35;2.25;;;24.70;99.90;;;;;;4990308;28;20446;-78
2023/08/13 11:38:27;;;;;;;4.18;2.40;;;24.80;99.90;;;;;;4992844;28;20033;-79
2023/08/13 11:40:54;;;;;;;2.25;2.00;;;24.90;99.90;;;;;;4990072;28;20469;-77
2023/08/13 11:43:20;;;;;;;2.58;2.17;;;24.90;99.90;;;;;;4985186;28;20106;-78
2023/08/13 11:45:49;;;;;;;2.50;2.30;;;24.90;99.90;;;;;;4981686;28;20058;-78
2023/08/13 11:48:21;;;;;;;3.97;2.50;;;24.80;99.90;;;;;;4976546;28;20034;-79
2023/08/13 11:51:11;;;;;;;2.60;2.30;;;24.70;99.90;;;;;;4972027;28;20062;-80
2023/08/13 11:53:42;;;;;;;3.80;2.30;;;24.50;99.90;;;;;;4989270;28;20117;-78
2023/08/13 11:56:10;;;;;;;4.63;2.60;;;24.60;99.90;;;;;;4990745;28;20058;-77
2023/08/13 11:58:37;;;;;;;2.63;2.42;;;24.60;99.90;;;;;;4987052;28;20259;-79
2023/08/13 12:01:03;;;;;;;3.65;2.40;;;24.40;99.90;;;;;;4991774;28;20033;-80
2023/08/13 12:03:40;;;;;;;3.03;2.20;;;24.30;99.90;;;;;;4986746;28;20038;-79
2023/08/13 12:06:07;;;;;;;3.22;2.20;;;24.40;99.90;;;;;;4986674;28;20035;-80
2023/08/13 12:08:33;;;;;;;2.83;2.10;;;24.40;99.90;;;;;;4986691;28;20050;-78
2023/08/13 12:10:59;;;;;;;2.85;2.40;;;24.50;99.90;;;;;;4987434;28;20045;-80
2023/08/13 12:13:26;;;;;;;3.53;2.20;;;24.60;99.90;;;;;;4990219;28;20034;-79
2023/08/13 12:15:52;;;;;;;3.92;2.35;;;24.60;99.90;;;;;;4984477;28;20026;-79
2023/08/13 12:18:18;;;;;;;3.03;2.40;;;24.70;99.90;;;;;;4979886;28;20050;-78
2023/08/13 12:20:44;;;;;;;3.45;2.53;;;24.80;99.90;;;;;;4967752;28;20054;-77
2023/08/13 12:23:10;;;;;;;2.78;2.28;;;24.90;99.90;;;;;;4986870;28;20122;-78
2023/08/13 12:25:36;;;;;;;3.30;2.30;;;24.90;99.90;;;;;;4976605;28;20030;-78
2023/08/13 12:28:02;;;;;;;2.50;2.30;;;25.00;99.90;;;;;;4968059;28;20484;-78
2023/08/13 12:30:28;;;;;;;3.58;2.70;;;25.00;99.90;;;;;;4985416;28;20160;-79
2023/08/13 12:32:54;;;;;;;5.22;2.58;;;25.10;99.90;;;;;;4981428;28;20026;-78
2023/08/13 12:35:21;;;;;;;3.88;2.70;;;25.20;99.90;;;;;;4977682;28;20034;-78
2023/08/13 12:37:47;;;;;;;5.13;2.95;;;25.30;99.90;;;;;;4989368;28;20038;-78
2023/08/13 12:40:14;;;;;;;4.07;2.90;;;25.30;99.90;;;;;;4982656;28;20033;-78